sensor_id;sensor_type;location;lat;lon;timestamp;pressure;altitude;pressure_sealevel;temperature;humidity
46714;BME280;32445;51.376;10.874;2023-04-28T00:01:37;99568.09;;;9.69;41.79
46714;BME280;32445;51.376;10.874;2023-04-28T00:04:38;99569.03;;;9.65;41.76
46714;BME280;32445;51.376;10.874;2023-04-28T00:07:38;99566.53;;;9.62;41.85
46714;BME280;32445;51.376;10.874;2023-04-28T00:10:38;99569.22;;;9.57;41.23
46714;BME280;32445;51.376;10.874;2023-04-28T00:13:39;99567.53;;;9.55;41.48
46714;BME280;32445;51.376;10.874;2023-04-28T00:16:39;99563.28;;;9.50;41.84
46714;BME280;32445;51.376;10.874;2023-04-28T00:19:39;99554.72;;;9.47;42.01
46714;BME280;32445;51.376;10.874;2023-04-28T00:22:40;99547.00;;;9.44;41.88
46714;BME280;32445;51.376;10.874;2023-04-28T00:25:40;99545.34;;;9.41;42.54
46714;BME280;32445;51.376;10.874;2023-04-28T00:28:41;99540.22;;;9.38;42.48
46714;BME280;32445;51.376;10.874;2023-04-28T00:31:41;99539.41;;;9.36;42.69
46714;BME280;32445;51.376;10.874;2023-04-28T00:34:41;99534.25;;;9.34;42.60
46714;BME280;32445;51.376;10.874;2023-04-28T00:37:41;99530.00;;;9.32;42.20
46714;BME280;32445;51.376;10.874;2023-04-28T00:40:42;99521.41;;;9.30;42.21
46714;BME280;32445;51.376;10.874;2023-04-28T00:43:44;99518.81;;;9.28;42.59
46714;BME280;32445;51.376;10.874;2023-04-28T00:46:44;99524.00;;;9.30;41.33
46714;BME280;32445;51.376;10.874;2023-04-28T00:49:45;99517.09;;;9.29;41.93
46714;BME280;32445;51.376;10.874;2023-04-28T00:52:46;99519.78;;;9.26;42.41
46714;BME280;32445;51.376;10.874;2023-04-28T00:55:48;99520.69;;;9.23;42.79
46714;BME280;32445;51.376;10.874;2023-04-28T00:58:50;99519.03;;;9.19;42.75
46714;BME280;32445;51.376;10.874;2023-04-28T01:01:50;99514.69;;;9.20;42.53
46714;BME280;32445;51.376;10.874;2023-04-28T01:04:51;99510.44;;;9.17;42.88
46714;BME280;32445;51.376;10.874;2023-04-28T01:07:52;99501.84;;;9.15;42.44
46714;BME280;32445;51.376;10.874;2023-04-28T01:10:52;99497.56;;;9.12;42.74
46714;BME280;32445;51.376;10.874;2023-04-28T01:13:52;99498.47;;;9.11;42.98
46714;BME280;32445;51.376;10.874;2023-04-28T01:16:53;99493.31;;;9.11;42.89
46714;BME280;32445;51.376;10.874;2023-04-28T01:19:54;99497.59;;;9.11;43.12
46714;BME280;32445;51.376;10.874;2023-04-28T01:22:55;99489.88;;;9.09;43.18
46714;BME280;32445;51.376;10.874;2023-04-28T01:25:55;99487.28;;;9.09;43.31
46714;BME280;32445;51.376;10.874;2023-04-28T01:28:55;99486.44;;;9.09;43.74
46714;BME280;32445;51.376;10.874;2023-04-28T01:31:55;99485.59;;;9.07;43.29
46714;BME280;32445;51.376;10.874;2023-04-28T01:34:56;99476.97;;;9.08;43.98
46714;BME280;32445;51.376;10.874;2023-04-28T01:37:56;99477.84;;;9.07;43.46
46714;BME280;32445;51.376;10.874;2023-04-28T01:40:58;99481.34;;;9.06;43.72
46714;BME280;32445;51.376;10.874;2023-04-28T01:43:59;99473.59;;;9.04;43.56
46714;BME280;32445;51.376;10.874;2023-04-28T01:46:59;99467.53;;;9.04;43.34
46714;BME280;32445;51.376;10.874;2023-04-28T01:50:00;99465.00;;;9.02;43.92
46714;BME280;32445;51.376;10.874;2023-04-28T01:53:01;99465.03;;;9.00;43.80
46714;BME280;32445;51.376;10.874;2023-04-28T01:56:01;99458.16;;;8.98;43.71
46714;BME280;32445;51.376;10.874;2023-04-28T01:59:01;99458.16;;;8.98;43.83
46714;BME280;32445;51.376;10.874;2023-04-28T02:02:02;99446.13;;;8.95;43.96
46714;BME280;32445;51.376;10.874;2023-04-28T02:05:02;99454.81;;;8.94;44.09
46714;BME280;32445;51.376;10.874;2023-04-28T02:08:03;99452.25;;;8.93;43.97
46714;BME280;32445;51.376;10.874;2023-04-28T02:11:03;99456.59;;;8.91;43.92
46714;BME280;32445;51.376;10.874;2023-04-28T02:14:03;99440.25;;;8.89;43.84
46714;BME280;32445;51.376;10.874;2023-04-28T02:17:04;99430.75;;;8.88;43.96
46714;BME280;32445;51.376;10.874;2023-04-28T02:20:05;99426.50;;;8.85;43.89
46714;BME280;32445;51.376;10.874;2023-04-28T02:23:06;99436.00;;;8.85;43.97
46714;BME280;32445;51.376;10.874;2023-04-28T02:26:06;99429.13;;;8.83;43.63
46714;BME280;32445;51.376;10.874;2023-04-28T02:29:06;99432.59;;;8.82;43.92
46714;BME280;32445;51.376;10.874;2023-04-28T02:32:07;99427.44;;;8.81;44.25
46714;BME280;32445;51.376;10.874;2023-04-28T02:35:07;99427.44;;;8.81;44.03
46714;BME280;32445;51.376;10.874;2023-04-28T02:38:08;99427.47;;;8.79;44.15
46714;BME280;32445;51.376;10.874;2023-04-28T02:41:09;99418.03;;;8.78;44.72
46714;BME280;32445;51.376;10.874;2023-04-28T02:44:09;99416.31;;;8.77;44.53
46714;BME280;32445;51.376;10.874;2023-04-28T02:47:09;99414.59;;;8.76;44.80
46714;BME280;32445;51.376;10.874;2023-04-28T02:50:11;99407.72;;;8.75;45.14
46714;BME280;32445;51.376;10.874;2023-04-28T02:53:11;99400.81;;;8.76;45.07
46714;BME280;32445;51.376;10.874;2023-04-28T02:56:12;99399.97;;;8.74;44.87
46714;BME280;32445;51.376;10.874;2023-04-28T02:59:12;99406.03;;;8.74;45.03
46714;BME280;32445;51.376;10.874;2023-04-28T03:02:12;99401.72;;;8.73;44.69
46714;BME280;32445;51.376;10.874;2023-04-28T03:05:13;99396.59;;;8.72;44.45
46714;BME280;32445;51.376;10.874;2023-04-28T03:08:13;99381.94;;;8.71;44.50
46714;BME280;32445;51.376;10.874;2023-04-28T03:11:13;99375.91;;;8.70;44.80
46714;BME280;32445;51.376;10.874;2023-04-28T03:14:14;99374.22;;;8.68;45.23
46714;BME280;32445;51.376;10.874;2023-04-28T03:17:14;99362.13;;;8.68;45.26
46714;BME280;32445;51.376;10.874;2023-04-28T03:20:14;99357.00;;;8.66;44.90
46714;BME280;32445;51.376;10.874;2023-04-28T03:23:15;99355.31;;;8.65;44.90
46714;BME280;32445;51.376;10.874;2023-04-28T03:26:15;99350.13;;;8.65;45.28
46714;BME280;32445;51.376;10.874;2023-04-28T03:29:15;99349.25;;;8.65;45.22
46714;BME280;32445;51.376;10.874;2023-04-28T03:32:16;99345.84;;;8.64;45.20
46714;BME280;32445;51.376;10.874;2023-04-28T03:35:17;99338.06;;;8.64;45.81
46714;BME280;32445;51.376;10.874;2023-04-28T03:38:17;99340.66;;;8.64;45.35
46714;BME280;32445;51.376;10.874;2023-04-28T03:41:17;99345.84;;;8.64;45.50
46714;BME280;32445;51.376;10.874;2023-04-28T03:44:18;99329.47;;;8.64;45.98
46714;BME280;32445;51.376;10.874;2023-04-28T03:47:18;99338.94;;;8.63;45.24
46714;BME280;32445;51.376;10.874;2023-04-28T03:50:19;99339.81;;;8.64;45.35
46714;BME280;32445;51.376;10.874;2023-04-28T03:53:19;99326.00;;;8.63;45.38
46714;BME280;32445;51.376;10.874;2023-04-28T03:56:20;99326.88;;;8.64;44.83
46714;BME280;32445;51.376;10.874;2023-04-28T03:59:20;99328.59;;;8.63;45.50
46714;BME280;32445;51.376;10.874;2023-04-28T04:02:21;99324.28;;;8.64;45.22
46714;BME280;32445;51.376;10.874;2023-04-28T04:05:21;99313.06;;;8.63;44.67
46714;BME280;32445;51.376;10.874;2023-04-28T04:08:22;99321.72;;;8.64;44.92
46714;BME280;32445;51.376;10.874;2023-04-28T04:11:22;99317.38;;;8.64;45.05
46714;BME280;32445;51.376;10.874;2023-04-28T04:14:23;99311.31;;;8.65;45.63
46714;BME280;32445;51.376;10.874;2023-04-28T04:17:23;99306.16;;;8.65;45.59
46714;BME280;32445;51.376;10.874;2023-04-28T04:20:23;99304.41;;;8.66;45.71
46714;BME280;32445;51.376;10.874;2023-04-28T04:23:24;99308.69;;;8.67;45.70
46714;BME280;32445;51.376;10.874;2023-04-28T04:26:24;99308.66;;;8.69;45.39
46714;BME280;32445;51.376;10.874;2023-04-28T04:29:25;99312.09;;;8.69;45.71
46714;BME280;32445;51.376;10.874;2023-04-28T04:32:25;99302.59;;;8.70;45.50
46714;BME280;32445;51.376;10.874;2023-04-28T04:35:25;99307.75;;;8.71;45.92
46714;BME280;32445;51.376;10.874;2023-04-28T04:38:26;99310.31;;;8.73;45.49
46714;BME280;32445;51.376;10.874;2023-04-28T04:41:26;99294.75;;;8.74;45.60
46714;BME280;32445;51.376;10.874;2023-04-28T04:44:26;99295.59;;;8.75;45.52
46714;BME280;32445;51.376;10.874;2023-04-28T04:47:27;99281.78;;;8.76;45.41
46714;BME280;32445;51.376;10.874;2023-04-28T04:50:27;99288.63;;;8.78;45.80
46714;BME280;32445;51.376;10.874;2023-04-28T04:53:27;99290.31;;;8.79;45.71
46714;BME280;32445;51.376;10.874;2023-04-28T04:56:28;99286.84;;;8.80;45.83
46714;BME280;32445;51.376;10.874;2023-04-28T04:59:28;99282.47;;;8.82;45.97
46714;BME280;32445;51.376;10.874;2023-04-28T05:02:28;99271.19;;;8.85;45.97
46714;BME280;32445;51.376;10.874;2023-04-28T05:05:29;99273.72;;;8.88;45.85
46714;BME280;32445;51.376;10.874;2023-04-28T05:08:29;99269.38;;;8.90;46.01
46714;BME280;32445;51.376;10.874;2023-04-28T05:11:30;99271.06;;;8.91;45.82
46714;BME280;32445;51.376;10.874;2023-04-28T05:14:30;99260.69;;;8.93;45.99
46714;BME280;32445;51.376;10.874;2023-04-28T05:17:31;99269.16;;;8.98;45.27
46714;BME280;32445;51.376;10.874;2023-04-28T05:20:31;99275.19;;;9.00;45.62
46714;BME280;32445;51.376;10.874;2023-04-28T05:23:32;99276.81;;;9.03;45.80
46714;BME280;32445;51.376;10.874;2023-04-28T05:26:32;99269.84;;;9.06;45.52
46714;BME280;32445;51.376;10.874;2023-04-28T05:29:32;99275.84;;;9.08;45.56
46714;BME280;32445;51.376;10.874;2023-04-28T05:32:34;99270.59;;;9.11;45.24
46714;BME280;32445;51.376;10.874;2023-04-28T05:35:35;99269.66;;;9.14;45.67
46714;BME280;32445;51.376;10.874;2023-04-28T05:38:35;99264.47;;;9.14;46.04
46714;BME280;32445;51.376;10.874;2023-04-28T05:41:35;99263.47;;;9.20;46.09
46714;BME280;32445;51.376;10.874;2023-04-28T05:44:36;99270.34;;;9.22;46.07
46714;BME280;32445;51.376;10.874;2023-04-28T05:47:36;99275.47;;;9.24;46.05
46714;BME280;32445;51.376;10.874;2023-04-28T05:50:37;99279.69;;;9.28;45.39
46714;BME280;32445;51.376;10.874;2023-04-28T05:53:37;99270.91;;;9.33;45.81
46714;BME280;32445;51.376;10.874;2023-04-28T05:56:37;99278.66;;;9.35;46.44
46714;BME280;32445;51.376;10.874;2023-04-28T05:59:38;99277.72;;;9.38;45.88
46714;BME280;32445;51.376;10.874;2023-04-28T06:02:38;99274.22;;;9.40;45.34
46714;BME280;32445;51.376;10.874;2023-04-28T06:05:39;99274.06;;;9.46;45.63
46714;BME280;32445;51.376;10.874;2023-04-28T06:08:39;99268.72;;;9.52;44.72
46714;BME280;32445;51.376;10.874;2023-04-28T06:11:40;99261.69;;;9.58;45.35
46714;BME280;32445;51.376;10.874;2023-04-28T06:14:40;99259.00;;;9.61;45.36
46714;BME280;32445;51.376;10.874;2023-04-28T06:17:40;99259.78;;;9.64;45.25
46714;BME280;32445;51.376;10.874;2023-04-28T06:20:41;99261.47;;;9.65;45.18
46714;BME280;32445;51.376;10.874;2023-04-28T06:23:41;99263.97;;;9.70;45.24
46714;BME280;32445;51.376;10.874;2023-04-28T06:26:42;99268.16;;;9.74;45.21
46714;BME280;32445;51.376;10.874;2023-04-28T06:29:43;99263.69;;;9.79;45.06
46714;BME280;32445;51.376;10.874;2023-04-28T06:32:44;99266.13;;;9.85;45.17
46714;BME280;32445;51.376;10.874;2023-04-28T06:35:44;99270.28;;;9.91;45.68
46714;BME280;32445;51.376;10.874;2023-04-28T06:38:45;99265.88;;;9.95;45.05
46714;BME280;32445;51.376;10.874;2023-04-28T06:41:46;99251.06;;;9.98;44.69
46714;BME280;32445;51.376;10.874;2023-04-28T06:44:46;99251.00;;;10.01;45.08
46714;BME280;32445;51.376;10.874;2023-04-28T06:47:46;99243.16;;;10.04;44.45
46714;BME280;32445;51.376;10.874;2023-04-28T06:50:47;99246.50;;;10.08;45.00
46714;BME280;32445;51.376;10.874;2023-04-28T06:53:47;99252.50;;;10.10;44.54
46714;BME280;32445;51.376;10.874;2023-04-28T06:56:50;99251.47;;;10.16;44.80
46714;BME280;32445;51.376;10.874;2023-04-28T06:59:50;99242.63;;;10.23;44.76
46714;BME280;32445;51.376;10.874;2023-04-28T07:02:51;99240.63;;;10.31;44.62
46714;BME280;32445;51.376;10.874;2023-04-28T07:05:51;99239.63;;;10.37;44.76
46714;BME280;32445;51.376;10.874;2023-04-28T07:08:52;99237.78;;;10.42;44.57
46714;BME280;32445;51.376;10.874;2023-04-28T07:11:52;99228.09;;;10.47;44.69
46714;BME280;32445;51.376;10.874;2023-04-28T07:14:53;99228.03;;;10.50;44.51
46714;BME280;32445;51.376;10.874;2023-04-28T07:17:54;99231.41;;;10.52;44.76
46714;BME280;32445;51.376;10.874;2023-04-28T07:20:55;99235.66;;;10.55;44.64
46714;BME280;32445;51.376;10.874;2023-04-28T07:23:55;99228.63;;;10.59;44.65
46714;BME280;32445;51.376;10.874;2023-04-28T07:26:56;99219.00;;;10.62;45.49
46714;BME280;32445;51.376;10.874;2023-04-28T07:29:56;99226.78;;;10.62;45.63
46714;BME280;32445;51.376;10.874;2023-04-28T07:32:59;99220.50;;;10.69;45.44
46714;BME280;32445;51.376;10.874;2023-04-28T07:36:02;99228.97;;;10.76;46.15
46714;BME280;32445;51.376;10.874;2023-04-28T07:39:02;99229.81;;;10.77;46.01
46714;BME280;32445;51.376;10.874;2023-04-28T07:42:03;99221.84;;;10.81;46.06
46714;BME280;32445;51.376;10.874;2023-04-28T07:45:03;99219.94;;;10.88;45.95
46714;BME280;32445;51.376;10.874;2023-04-28T07:48:05;99222.25;;;10.96;45.93
46714;BME280;32445;51.376;10.874;2023-04-28T07:51:05;99225.56;;;11.01;45.88
46714;BME280;32445;51.376;10.874;2023-04-28T07:54:06;99226.31;;;11.04;46.18
46714;BME280;32445;51.376;10.874;2023-04-28T07:57:06;99225.41;;;11.05;45.66
46714;BME280;32445;51.376;10.874;2023-04-28T08:00:07;99210.66;;;11.07;45.85
46714;BME280;32445;51.376;10.874;2023-04-28T08:03:07;99211.44;;;11.10;46.01
46714;BME280;32445;51.376;10.874;2023-04-28T08:06:08;99221.00;;;11.09;46.66
46714;BME280;32445;51.376;10.874;2023-04-28T08:09:09;99207.84;;;11.14;46.38
46714;BME280;32445;51.376;10.874;2023-04-28T08:12:10;99199.84;;;11.20;46.68
46714;BME280;32445;51.376;10.874;2023-04-28T08:15:10;99195.34;;;11.25;46.47
46714;BME280;32445;51.376;10.874;2023-04-28T08:18:11;99195.19;;;11.30;46.88
46714;BME280;32445;51.376;10.874;2023-04-28T08:21:11;99194.13;;;11.35;46.60
46714;BME280;32445;51.376;10.874;2023-04-28T08:24:12;99199.16;;;11.40;46.86
46714;BME280;32445;51.376;10.874;2023-04-28T08:27:12;99200.81;;;11.42;47.14
46714;BME280;32445;51.376;10.874;2023-04-28T08:30:12;99192.97;;;11.44;47.25
46714;BME280;32445;51.376;10.874;2023-04-28T09:43:42;99147.44;;;12.93;47.93
46714;BME280;32445;51.376;10.874;2023-04-28T09:46:44;99150.97;;;12.92;48.31
46714;BME280;32445;51.376;10.874;2023-04-28T09:49:55;99145.44;;;13.00;48.58
46714;BME280;32445;51.376;10.874;2023-04-28T09:52:56;99143.94;;;13.15;49.17
46714;BME280;32445;51.376;10.874;2023-04-28T09:55:59;99138.00;;;13.32;49.98
46714;BME280;32445;51.376;10.874;2023-04-28T09:59:00;99144.28;;;13.48;49.65
46714;BME280;32445;51.376;10.874;2023-04-28T10:15:33;99132.28;;;13.84;51.16
46714;BME280;32445;51.376;10.874;2023-04-28T10:18:35;99125.13;;;14.07;49.44
46714;BME280;32445;51.376;10.874;2023-04-28T10:21:41;99131.28;;;14.25;48.95
46714;BME280;32445;51.376;10.874;2023-04-28T10:28:15;99119.41;;;14.54;48.12
46714;BME280;32445;51.376;10.874;2023-04-28T10:31:17;99119.63;;;14.68;47.37
46714;BME280;32445;51.376;10.874;2023-04-28T10:34:21;99113.72;;;14.82;46.64
46714;BME280;32445;51.376;10.874;2023-04-28T10:41:01;99109.34;;;15.00;45.76
46714;BME280;32445;51.376;10.874;2023-04-28T10:47:59;99100.19;;;15.09;46.33
46714;BME280;32445;51.376;10.874;2023-04-28T10:54:07;99077.13;;;15.17;46.11
46714;BME280;32445;51.376;10.874;2023-04-28T10:57:15;99082.34;;;15.17;46.56
46714;BME280;32445;51.376;10.874;2023-04-28T11:00:27;99074.34;;;15.20;46.42
46714;BME280;32445;51.376;10.874;2023-04-28T11:07:09;99070.47;;;15.28;46.98
46714;BME280;32445;51.376;10.874;2023-04-28T11:10:10;99066.34;;;15.39;46.25
46714;BME280;32445;51.376;10.874;2023-04-28T11:13:28;99065.09;;;15.47;46.37
46714;BME280;32445;51.376;10.874;2023-04-28T11:16:33;99069.84;;;15.56;45.46
46714;BME280;32445;51.376;10.874;2023-04-28T11:19:45;99065.13;;;15.63;45.65
46714;BME280;32445;51.376;10.874;2023-04-28T11:22:51;99064.13;;;15.65;45.78
46714;BME280;32445;51.376;10.874;2023-04-28T11:25:55;99063.13;;;15.68;45.94
46714;BME280;32445;51.376;10.874;2023-04-28T11:28:57;99059.41;;;15.72;45.38
46714;BME280;32445;51.376;10.874;2023-04-28T11:31:58;99060.84;;;15.78;45.56
46714;BME280;32445;51.376;10.874;2023-04-28T11:34:58;99061.69;;;15.78;44.89
46714;BME280;32445;51.376;10.874;2023-04-28T11:38:02;99054.59;;;15.80;45.55
46714;BME280;32445;51.376;10.874;2023-04-28T11:41:05;99050.97;;;15.83;45.40
46714;BME280;32445;51.376;10.874;2023-04-28T11:44:14;99051.94;;;15.82;46.57
46714;BME280;32445;51.376;10.874;2023-04-28T11:47:15;99053.44;;;15.86;46.80
46714;BME280;32445;51.376;10.874;2023-04-28T11:50:15;99059.53;;;15.86;46.89
46714;BME280;32445;51.376;10.874;2023-04-28T11:53:15;99055.91;;;15.89;47.14
46714;BME280;32445;51.376;10.874;2023-04-28T11:56:16;99054.94;;;15.90;47.31
46714;BME280;32445;51.376;10.874;2023-04-28T11:59:17;99053.19;;;15.90;47.31
46714;BME280;32445;51.376;10.874;2023-04-28T12:02:24;99054.22;;;15.88;47.91
46714;BME280;32445;51.376;10.874;2023-04-28T12:05:27;99047.28;;;15.87;47.24
46714;BME280;32445;51.376;10.874;2023-04-28T12:08:28;99041.22;;;15.86;47.08
46714;BME280;32445;51.376;10.874;2023-04-28T12:11:29;99038.59;;;15.86;47.62
46714;BME280;32445;51.376;10.874;2023-04-28T12:14:31;99033.34;;;15.86;47.78
46714;BME280;32445;51.376;10.874;2023-04-28T12:17:42;99038.69;;;15.85;48.50
46714;BME280;32445;51.376;10.874;2023-04-28T12:20:42;99041.88;;;15.90;48.24
46714;BME280;32445;51.376;10.874;2023-04-28T12:23:42;99033.94;;;15.91;47.76
46714;BME280;32445;51.376;10.874;2023-04-28T12:26:43;99036.44;;;15.93;47.81
46714;BME280;32445;51.376;10.874;2023-04-28T12:29:44;99025.97;;;15.93;47.77
46714;BME280;32445;51.376;10.874;2023-04-28T12:32:45;99025.91;;;15.95;48.20
46714;BME280;32445;51.376;10.874;2023-04-28T12:35:46;99011.78;;;15.97;47.81
46714;BME280;32445;51.376;10.874;2023-04-28T12:38:48;99010.69;;;16.01;48.62
46714;BME280;32445;51.376;10.874;2023-04-28T12:41:49;99008.78;;;16.05;48.34
46714;BME280;32445;51.376;10.874;2023-04-28T12:44:49;99012.91;;;16.09;48.29
46714;BME280;32445;51.376;10.874;2023-04-28T12:47:49;99015.25;;;16.14;48.86
46714;BME280;32445;51.376;10.874;2023-04-28T12:50:50;99007.13;;;16.18;48.46
46714;BME280;32445;51.376;10.874;2023-04-28T12:53:51;99012.88;;;16.25;48.73
46714;BME280;32445;51.376;10.874;2023-04-28T12:56:52;99015.13;;;16.31;48.59
46714;BME280;32445;51.376;10.874;2023-04-28T12:59:53;99008.69;;;16.37;48.39
46714;BME280;32445;51.376;10.874;2023-04-28T13:02:55;99005.59;;;16.44;48.53
46714;BME280;32445;51.376;10.874;2023-04-28T13:05:56;99001.59;;;16.53;48.96
46714;BME280;32445;51.376;10.874;2023-04-28T13:08:57;98996.75;;;16.61;48.59
46714;BME280;32445;51.376;10.874;2023-04-28T13:13:28;98996.22;;;16.71;48.02
46714;BME280;32445;51.376;10.874;2023-04-28T13:16:29;98994.16;;;16.76;47.42
46714;BME280;32445;51.376;10.874;2023-04-28T13:19:30;98996.59;;;16.79;47.13
46714;BME280;32445;51.376;10.874;2023-04-28T13:22:31;98994.75;;;16.81;47.43
46714;BME280;32445;51.376;10.874;2023-04-28T13:25:32;98985.94;;;16.82;47.16
46714;BME280;32445;51.376;10.874;2023-04-28T13:28:32;98981.44;;;16.84;47.30
46714;BME280;32445;51.376;10.874;2023-04-28T13:31:33;98976.91;;;16.88;47.01
46714;BME280;32445;51.376;10.874;2023-04-28T13:34:33;98969.69;;;16.91;47.67
46714;BME280;32445;51.376;10.874;2023-04-28T13:37:34;98974.75;;;16.94;47.93
46714;BME280;32445;51.376;10.874;2023-04-28T13:40:37;98970.91;;;17.00;48.12
46714;BME280;32445;51.376;10.874;2023-04-28T13:43:37;98960.03;;;17.06;47.87
46714;BME280;32445;51.376;10.874;2023-04-28T13:46:37;98958.66;;;17.15;47.96
46714;BME280;32445;51.376;10.874;2023-04-28T13:49:38;98954.69;;;17.22;47.49
46714;BME280;32445;51.376;10.874;2023-04-28T13:52:39;98962.28;;;17.27;47.77
46714;BME280;32445;51.376;10.874;2023-04-28T13:55:39;98963.66;;;17.33;47.42
46714;BME280;32445;51.376;10.874;2023-04-28T13:58:40;98957.19;;;17.38;47.65
46714;BME280;32445;51.376;10.874;2023-04-28T14:01:40;98943.47;;;17.47;47.00
46714;BME280;32445;51.376;10.874;2023-04-28T14:04:41;98943.94;;;17.54;47.27
46714;BME280;32445;51.376;10.874;2023-04-28T14:07:47;98947.97;;;17.60;47.19
46714;BME280;32445;51.376;10.874;2023-04-28T14:10:48;98950.19;;;17.66;47.14
46714;BME280;32445;51.376;10.874;2023-04-28T14:13:48;98942.88;;;17.71;46.90
46714;BME280;32445;51.376;10.874;2023-04-28T14:16:49;98945.09;;;17.77;46.66
46714;BME280;32445;51.376;10.874;2023-04-28T14:19:49;98939.63;;;17.80;46.55
46714;BME280;32445;51.376;10.874;2023-04-28T14:22:49;98937.56;;;17.86;46.63
46714;BME280;32445;51.376;10.874;2023-04-28T14:25:51;98938.38;;;17.86;46.96
46714;BME280;32445;51.376;10.874;2023-04-28T14:28:54;98934.84;;;17.87;46.60
46714;BME280;32445;51.376;10.874;2023-04-28T14:31:55;98923.41;;;17.88;46.19
46714;BME280;32445;51.376;10.874;2023-04-28T14:34:55;98922.34;;;17.91;46.20
46714;BME280;32445;51.376;10.874;2023-04-28T14:37:55;98931.09;;;17.91;46.04
46714;BME280;32445;51.376;10.874;2023-04-28T14:40:56;98931.09;;;17.91;46.47
46714;BME280;32445;51.376;10.874;2023-04-28T14:43:56;98929.41;;;17.90;46.16
46714;BME280;32445;51.376;10.874;2023-04-28T14:46:57;98932.88;;;17.91;46.46
46714;BME280;32445;51.376;10.874;2023-04-28T14:49:58;98924.97;;;17.91;46.09
46714;BME280;32445;51.376;10.874;2023-04-28T14:52:59;98924.97;;;17.91;46.34
46714;BME280;32445;51.376;10.874;2023-04-28T14:56:05;98925.06;;;17.89;46.61
46714;BME280;32445;51.376;10.874;2023-04-28T14:59:05;98921.59;;;17.89;46.14
46714;BME280;32445;51.376;10.874;2023-04-28T15:02:06;98914.66;;;17.88;46.06
46714;BME280;32445;51.376;10.874;2023-04-28T15:05:07;98917.59;;;17.83;46.38
46714;BME280;32445;51.376;10.874;2023-04-28T15:08:07;98921.16;;;17.82;46.17
46714;BME280;32445;51.376;10.874;2023-04-28T15:11:08;98916.88;;;17.81;46.05
46714;BME280;32445;51.376;10.874;2023-04-28T15:14:08;98921.25;;;17.80;45.97
46714;BME280;32445;51.376;10.874;2023-04-28T15:17:09;98920.44;;;17.80;46.02
46714;BME280;32445;51.376;10.874;2023-04-28T15:20:10;98908.34;;;17.77;45.93
46714;BME280;32445;51.376;10.874;2023-04-28T15:23:10;98905.81;;;17.76;45.74
46714;BME280;32445;51.376;10.874;2023-04-28T15:26:10;98911.16;;;17.74;45.89
46714;BME280;32445;51.376;10.874;2023-04-28T15:29:11;98912.09;;;17.73;46.22
46714;BME280;32445;51.376;10.874;2023-04-28T15:32:11;98910.41;;;17.72;45.80
46714;BME280;32445;51.376;10.874;2023-04-28T15:35:13;98911.38;;;17.71;45.91
46714;BME280;32445;51.376;10.874;2023-04-28T15:38:13;98909.69;;;17.70;45.75
46714;BME280;32445;51.376;10.874;2023-04-28T15:41:15;98907.97;;;17.69;46.14
46714;BME280;32445;51.376;10.874;2023-04-28T15:44:15;98901.06;;;17.68;46.14
46714;BME280;32445;51.376;10.874;2023-04-28T15:47:15;98909.88;;;17.67;46.20
46714;BME280;32445;51.376;10.874;2023-04-28T15:50:17;98908.09;;;17.68;46.17
46714;BME280;32445;51.376;10.874;2023-04-28T15:53:17;98897.69;;;17.66;45.90
46714;BME280;32445;51.376;10.874;2023-04-28T15:56:18;98902.94;;;17.66;46.17
46714;BME280;32445;51.376;10.874;2023-04-28T15:59:18;98902.09;;;17.66;46.16
46714;BME280;32445;51.376;10.874;2023-04-28T16:02:20;98905.66;;;17.64;46.18
46714;BME280;32445;51.376;10.874;2023-04-28T16:05:21;98901.44;;;17.62;46.06
46714;BME280;32445;51.376;10.874;2023-04-28T16:08:22;98909.31;;;17.62;45.80
46714;BME280;32445;51.376;10.874;2023-04-28T16:11:24;98899.69;;;17.62;46.11
46714;BME280;32445;51.376;10.874;2023-04-28T16:14:25;98898.94;;;17.60;45.91
46714;BME280;32445;51.376;10.874;2023-04-28T16:17:26;98910.28;;;17.61;46.43
46714;BME280;32445;51.376;10.874;2023-04-28T16:20:28;98907.72;;;17.59;46.40
46714;BME280;32445;51.376;10.874;2023-04-28T16:23:29;98903.56;;;17.57;46.26
46714;BME280;32445;51.376;10.874;2023-04-28T16:26:29;98903.56;;;17.57;46.41
46714;BME280;32445;51.376;10.874;2023-04-28T16:29:29;98899.34;;;17.54;46.15
46714;BME280;32445;51.376;10.874;2023-04-28T16:32:30;98898.69;;;17.51;46.51
46714;BME280;32445;51.376;10.874;2023-04-28T16:35:32;98894.50;;;17.48;47.02
46714;BME280;32445;51.376;10.874;2023-04-28T16:38:33;98896.25;;;17.47;46.59
46714;BME280;32445;51.376;10.874;2023-04-28T16:41:33;98891.13;;;17.46;46.60
46714;BME280;32445;51.376;10.874;2023-04-28T16:44:33;98894.66;;;17.45;46.59
46714;BME280;32445;51.376;10.874;2023-04-28T16:47:34;98893.94;;;17.43;46.74
46714;BME280;32445;51.376;10.874;2023-04-28T16:50:34;98893.28;;;17.39;46.92
46714;BME280;32445;51.376;10.874;2023-04-28T16:53:35;98893.38;;;17.38;46.95
46714;BME280;32445;51.376;10.874;2023-04-28T16:56:35;98898.72;;;17.36;47.10
46714;BME280;32445;51.376;10.874;2023-04-28T16:59:38;98885.81;;;17.33;47.47
46714;BME280;32445;51.376;10.874;2023-04-28T17:02:38;98894.72;;;17.30;46.96
46714;BME280;32445;51.376;10.874;2023-04-28T17:05:38;98888.63;;;17.30;46.94
46714;BME280;32445;51.376;10.874;2023-04-28T17:08:39;98890.53;;;17.28;47.23
46714;BME280;32445;51.376;10.874;2023-04-28T17:11:40;98884.53;;;17.26;47.12
46714;BME280;32445;51.376;10.874;2023-04-28T17:14:40;98882.09;;;17.23;47.01
46714;BME280;32445;51.376;10.874;2023-04-28T17:17:41;98884.00;;;17.21;47.25
46714;BME280;32445;51.376;10.874;2023-04-28T17:20:41;98881.44;;;17.19;46.90
46714;BME280;32445;51.376;10.874;2023-04-28T17:23:42;98876.38;;;17.16;47.29
46714;BME280;32445;51.376;10.874;2023-04-28T17:26:42;98876.59;;;17.13;47.35
46714;BME280;32445;51.376;10.874;2023-04-28T17:29:43;98880.13;;;17.12;47.47
46714;BME280;32445;51.376;10.874;2023-04-28T17:32:43;98874.16;;;17.10;47.35
46714;BME280;32445;51.376;10.874;2023-04-28T17:35:44;98879.59;;;17.07;47.64